• Join FlightAware (Why Join?)
  • Login
  • US Flag 
03:58AM EDT


 

Airport Tracker/Info


-or-


 

Live Flight TrackerFlight Track Log ✈ SWA2058 ✈ 06-Apr-2013 ✈ KSAN - KHOU

Flight Track Log - Related Links

Times and Time Zones

All times are in EDT time to prevent confusion due to time zone crossing. See the SWA2058 flight status page for this flight to view local times or setup timezone preferences in your user account.

Time Position Orientation Groundspeed Altitude Reporting Facility
EDT Latitude Longitude Course Direction KTS MPH feet Rate Location/Type
11:58AM 32.7394 -117.3175 273° West 224 258 4,600  Level Los Angeles Center
11:59AM 32.6769 -117.2956 164° South 266 306 7,200 2,520 Climbing Los Angeles Center
12:00PM 32.6447 -117.2086 114° Southeast 293 337 9,900 2,580 Climbing Los Angeles Center
12:01PM 32.6289 -117.0986 100° East 333 383 12,600 2,700 Climbing Los Angeles Center
12:02PM 32.6114 -116.9778 100° East 363 418 15,500 2,700 Climbing Los Angeles Center
12:03PM 32.6228 -116.8508 84° East 388 447 18,200 2,760 Climbing Los Angeles Center
12:04PM 32.6392 -116.6886 83° East 417 480 21,200 2,580 Climbing Los Angeles Center
12:05PM 32.6522 -116.5506 84° East 427 491 23,600 2,160 Climbing Los Angeles Center
12:06PM 32.6656 -116.4089 84° East 440 506 25,700 1,860 Climbing Los Angeles Center
12:07PM 32.6794 -116.2628 84° East 459 528 27,500 1,680 Climbing Los Angeles Center
12:08PM 32.6931 -116.1114 84° East 469 540 29,200 1,680 Climbing Los Angeles Center
12:09PM 32.7064 -115.9239 85° East 484 557 31,000 1,680 Climbing Los Angeles Center
12:10PM 32.7139 -115.7633 87° East 490 564 32,700 1,500 Climbing Los Angeles Center
12:11PM 32.7225 -115.6039 86° East 488 562 34,200 1,560 Climbing Los Angeles Center
12:12PM 32.7314 -115.4450 86° East 485 558 35,900 1,440 Climbing Los Angeles Center
12:13PM 32.7378 -115.2875 87° East 480 552 37,200 1,200 Climbing Los Angeles Center
12:14PM 32.7464 -115.1303 86° East 478 550 38,400 840 Climbing Los Angeles Center
12:15PM 32.7558 -114.9428 87° East 475 547 39,000 240 Climbing Los Angeles Center
12:16PM 32.7625 -114.7875 87° East 474 545 39,000  Level Los Angeles Center
12:18PM 32.7675 -114.6319 88° East 473 544 39,000  Level Los Angeles Center
12:19PM 32.7719 -114.4756 88° East 473 544 39,000  Level Los Angeles Center
12:20PM 32.7731 -114.3206 89° East 470 541 39,000  Level Los Angeles Center
12:21PM 32.7747 -114.1647 89° East 471 542 39,000  Level Los Angeles Center
12:21PM 32.7750 -114.0731 90° East 472 543 39,000  Level Albuquerque Center
12:22PM 32.7822 -113.9197 87° East 468 539 39,000  Level Albuquerque Center
12:23PM 32.8075 -113.7692 79° East 463 533 39,000  Level Albuquerque Center
12:24PM 32.8275 -113.6169 81° East 465 535 39,000  Level Albuquerque Center
12:25PM 32.8489 -113.4644 80° East 466 536 39,000  Level Albuquerque Center
12:26PM 32.8703 -113.3117 80° East 466 536 39,000  Level Albuquerque Center
12:27PM 32.8911 -113.1594 81° East 464 534 39,000  Level Albuquerque Center
12:28PM 32.9164 -112.9775 81° East 462 532 39,000  Level Albuquerque Center
12:29PM 32.9353 -112.8244 82° East 463 533 39,000  Level Albuquerque Center
12:30PM 32.9547 -112.6722 81° East 462 532 39,000  Level Albuquerque Center
12:31PM 32.9419 -112.5136 95° East 479 551 39,000  Level Albuquerque Center
12:32PM 32.9261 -112.3558 97° East 479 551 39,000  Level Albuquerque Center
12:33PM 32.9100 -112.2019 97° East 480 552 39,000  Level Albuquerque Center
12:34PM 32.8953 -112.0456 96° East 480 552 39,000  Level Albuquerque Center
12:36PM 32.8753 -111.8592 97° East 477 549 39,000  Level Albuquerque Center
12:37PM 32.8594 -111.7036 97° East 477 549 39,000  Level Albuquerque Center
12:38PM 32.8431 -111.5506 97° East 472 543 39,000  Level Albuquerque Center
12:39PM 32.8261 -111.3967 97° East 472 543 39,000  Level Albuquerque Center
12:40PM 32.8103 -111.2436 97° East 469 540 39,000  Level Albuquerque Center
12:41PM 32.7892 -111.0583 98° East 474 545 39,000  Level Albuquerque Center
12:42PM 32.7725 -110.9058 97° East 471 542 39,000  Level Albuquerque Center
12:43PM 32.7544 -110.7519 98° East 471 542 39,000  Level Albuquerque Center
12:44PM 32.7347 -110.5819 98° East 472 543 39,000  Level Albuquerque Center
12:45PM 32.7172 -110.4283 98° East 474 545 39,000  Level Albuquerque Center
12:46PM 32.6992 -110.2744 98° East 475 547 39,000  Level Albuquerque Center
12:47PM 32.6811 -110.1203 98° East 478 550 39,000  Level Albuquerque Center
12:48PM 32.6628 -109.9642 98° East 480 552 39,000  Level Albuquerque Center
12:49PM 32.6389 -109.7761 99° East 485 558 39,000  Level Albuquerque Center
12:50PM 32.6186 -109.6172 99° East 492 566 39,000  Level Albuquerque Center
12:51PM 32.5989 -109.4586 98° East 493 567 39,000  Level Albuquerque Center
12:52PM 32.5783 -109.3000 99° East 494 568 39,000  Level Albuquerque Center
12:53PM 32.5589 -109.1417 98° East 494 568 39,000  Level Albuquerque Center
12:54PM 32.5344 -108.9533 99° East 492 566 39,000  Level Albuquerque Center
12:55PM 32.5142 -108.7953 99° East 493 567 39,000  Level Albuquerque Center
12:56PM 32.4933 -108.6347 99° East 499 574 39,000  Level Albuquerque Center
12:57PM 32.4725 -108.4756 99° East 497 572 39,000  Level Albuquerque Center
12:58PM 32.4469 -108.2842 99° East 498 573 39,000  Level Albuquerque Center
12:59PM 32.4269 -108.1308 99° East 494 568 39,000  Level Albuquerque Center
01:00PM 32.4044 -107.9703 99° East 496 571 39,000  Level Albuquerque Center
01:01PM 32.3822 -107.8106 99° East 495 570 39,000  Level Albuquerque Center
01:02PM 32.3611 -107.6514 99° East 495 570 39,000  Level Albuquerque Center
01:03PM 32.3339 -107.4608 100° East 491 565 39,000  Level Albuquerque Center
01:04PM 32.3119 -107.3050 99° East 488 562 39,000  Level Albuquerque Center
01:05PM 32.2906 -107.1342 98° East 485 558 39,000  Level Albuquerque Center
01:06PM 32.2675 -106.9772 100° East 485 558 39,000  Level Albuquerque Center
01:07PM 32.2425 -106.8139 100° East 483 556 39,000  Level Albuquerque Center
01:09PM 32.2197 -106.6597 100° East 481 554 39,000  Level Albuquerque Center
01:10PM 32.1964 -106.5047 100° East 482 555 39,000  Level Albuquerque Center
01:11PM 32.1739 -106.3500 100° East 481 554 39,000  Level Albuquerque Center
01:12PM 32.1500 -106.1958 100° East 480 552 39,000  Level Albuquerque Center
01:13PM 32.1261 -106.0425 100° East 477 549 39,000  Level Albuquerque Center
01:14PM 32.0981 -105.8667 101° East 478 550 39,000  Level Albuquerque Center
01:15PM 32.0747 -105.7133 100° East 476 548 39,000  Level Albuquerque Center
01:16PM 32.0500 -105.5594 101° East 478 550 39,000  Level Albuquerque Center
01:17PM 32.0269 -105.4047 100° East 479 551 39,000  Level Albuquerque Center
01:18PM 31.9969 -105.2181 101° East 477 549 39,000  Level Albuquerque Center
01:19PM 31.9733 -105.0658 100° East 477 549 39,000  Level Albuquerque Center
01:20PM 31.9483 -104.9100 101° East 480 552 39,000  Level Albuquerque Center
01:21PM 31.9222 -104.7550 101° East 481 554 39,000  Level Albuquerque Center
01:22PM 31.8975 -104.5992 101° East 483 556 39,000  Level Albuquerque Center
01:23PM 31.8722 -104.4433 101° East 483 556 39,000  Level Albuquerque Center
01:24PM 31.8456 -104.2867 101° East 485 558 39,000  Level Albuquerque Center
01:25PM 31.8136 -104.0981 101° East 487 560 39,000  Level Albuquerque Center
01:26PM 31.7886 -103.9422 101° East 487 560 39,000  Level Albuquerque Center
01:27PM 31.7614 -103.7847 101° East 490 564 39,000  Level Albuquerque Center
01:28PM 31.7317 -103.6183 102° East 493 567 39,000  Level Albuquerque Center
01:29PM 31.7058 -103.4631 101° East 490 564 39,000  Level Albuquerque Center
01:30PM 31.6797 -103.3147 102° East 494 568 39,000  Level Albuquerque Center
01:31PM 31.6456 -103.1267 102° East 492 566 39,000  Level Albuquerque Center
01:32PM 31.6175 -102.9697 102° East 492 566 39,000  Level Albuquerque Center
01:33PM 31.5892 -102.8131 102° East 490 564 39,000  Level Albuquerque Center
01:34PM 31.5597 -102.6544 102° East 493 567 39,000  Level Albuquerque Center
01:35PM 31.5303 -102.4906 102° East 499 574 39,000  Level Albuquerque Center
01:36PM 31.5006 -102.3303 102° East 506 582 39,000  Level Albuquerque Center
01:37PM 31.4725 -102.1733 102° East 501 577 39,000  Level Albuquerque Center
01:38PM 31.4369 -101.9861 103° East 497 572 39,000  Level Albuquerque Center
01:40PM 31.4075 -101.8217 102° East 493 567 39,000  Level Albuquerque Center
01:41PM 31.3539 -101.5419 103° East 490 564 39,000  Level Houston Center
01:43PM 31.3233 -101.3878 103° East 487 560 39,000  Level Houston Center
01:44PM 31.2878 -101.2022 103° East 488 562 39,000  Level Houston Center
01:45PM 31.2572 -101.0433 103° East 490 564 39,000  Level Houston Center
01:46PM 31.2278 -100.8903 103° East 488 562 39,000  Level Houston Center
01:47PM 31.1981 -100.7356 103° East 486 559 39,000  Level Houston Center
01:48PM 31.1669 -100.5817 103° East 487 560 39,000  Level Houston Center
01:49PM 31.1364 -100.4294 103° East 482 555 39,000  Level Houston Center
01:50PM 31.1056 -100.2786 103° East 477 549 39,000  Level Houston Center
01:51PM 31.0764 -100.1292 103° East 474 545 39,000  Level Houston Center
01:52PM 31.0389 -99.9483 104° East 477 549 39,000  Level Houston Center
01:53PM 31.0092 -99.7978 103° East 474 545 39,000  Level Houston Center
01:54PM 30.9778 -99.6486 104° East 473 544 39,000  Level Houston Center
01:55PM 30.9475 -99.4994 103° East 473 544 39,000  Level Houston Center
01:56PM 30.9142 -99.3464 104° East 483 556 39,000  Level Houston Center
01:57PM 30.8839 -99.1969 103° East 477 549 39,000  Level Houston Center
01:58PM 30.8478 -99.0292 104° East 478 550 39,000  Level Houston Center
01:59PM 30.8153 -98.8775 104° East 479 551 39,000  Level Houston Center
02:00PM 30.7881 -98.7236 102° East 482 555 39,000  Level Houston Center
02:01PM 30.7758 -98.5669 95° East 483 556 39,000  Level Houston Center
02:02PM 30.7583 -98.3833 96° East 485 558 39,000  Level Houston Center
02:03PM 30.7433 -98.2250 96° East 488 562 39,000 -480 Level Houston Center
02:04PM 30.7281 -98.0683 96° East 487 560 38,000 -960 Descending Houston Center
02:05PM 30.7125 -97.9144 97° East 479 551 37,000 -1,200 Descending Houston Center
02:06PM 30.6969 -97.7600 97° East 480 552 35,600 -1,260 Descending Houston Center
02:07PM 30.6808 -97.6081 97° East 474 545 34,400 -2,040 Descending Houston Center
02:08PM 30.6642 -97.4353 96° East 463 533 31,500 -2,700 Descending Houston Center
02:09PM 30.6497 -97.2883 96° East 460 529 28,900 -2,280 Descending Houston Center
02:10PM 30.6336 -97.1444 97° East 453 521 26,800 -1,920 Descending Houston Center
02:11PM 30.6197 -97.0069 97° East 434 499 25,000 -1,860 Descending Houston Center
02:12PM 30.5744 -96.8881 114° Southeast 401 461 23,000 -2,160 Descending Houston Center
02:14PM 30.5050 -96.7556 121° Southeast 410 472 20,600 -2,040 Descending Houston Center
02:15PM 30.4472 -96.6506 123° Southeast 390 449 18,800 -1,680 Descending Houston Center
02:16PM 30.3917 -96.5483 122° Southeast 375 432 17,100 -1,740 Descending Houston Center
02:17PM 30.3381 -96.4478 122° Southeast 366 421 15,300 -1,920 Descending Houston Center
02:17PM 30.2950 -96.3697 123° Southeast 354 407 13,800 -1,800 Descending Houston Center
02:18PM 30.2844 -96.3511 123° Southeast 356 410 13,500 -1,740 Descending Houston Center
02:18PM 30.2381 -96.2650 122° Southeast 342 394 11,900 -1,440 Descending Houston Center
02:19PM 30.1817 -96.1939 133° Southeast 328 377 11,000 -720 Descending Houston Center
02:20PM 30.1681 -96.1856 152° Southeast 333 383 11,000  Level Houston Center
02:20PM 30.0939 -96.1483 157° South 333 383 11,000 -120 Level Houston Center
02:21PM 30.0733 -96.1356 152° Southeast 334 384 10,900  Descending Houston Center
02:22PM 30.0014 -96.0983 156° South 334 384 11,000  Climbing Houston Center
02:22PM 29.9900 -96.0911 151° Southeast 330 380 10,900  Descending Houston Center
02:22PM 29.9222 -96.0569 156° South 334 384 11,000  Climbing Houston Center
02:23PM 29.9050 -96.0458 151° Southeast 334 384 10,900  Descending Houston Center
02:24PM 29.8342 -96.0092 156° South 334 384 11,000 60 Climbing Houston Center
02:24PM 29.8161 -95.9994 155° Southeast 340 391 11,000  Level Houston Center
02:24PM 29.7589 -95.9647 152° Southeast 336 387 11,000  Level Houston Center
02:25PM 29.7369 -95.9469 145° Southeast 334 384 11,000  Level Houston Center
02:26PM 29.6769 -95.8900 140° Southeast 335 386 11,000 -120 Level Houston Center
02:26PM 29.6492 -95.8667 144° Southeast 336 387 10,900 -600 Descending Houston Center
02:27PM 29.6019 -95.8242 142° Southeast 324 373 10,400 -900 Descending Houston Center
02:27PM 29.5786 -95.8050 144° Southeast 324 373 10,000 -1,320 Descending Houston Center
02:28PM 29.5572 -95.7478 113° Southeast 300 345 9,100 -1,380 Descending Houston Center
02:28PM 29.5622 -95.7181 79° East 309 356 8,600 -1,680 Descending Houston Center
02:29PM 29.5761 -95.6517 76° East 307 353 7,400 -1,560 Descending Houston Center
02:29PM 29.5839 -95.6236 72° East 306 352 7,000 -1,080 Descending Houston Center
02:30PM 29.5969 -95.5581 77° East 294 338 6,300 -1,020 Descending Houston Center
02:30PM 29.6017 -95.5328 78° East 300 345 6,000 -300 Descending Houston Center
02:31PM 29.6161 -95.4669 76° East 283 326 6,000  Level Houston Center
02:31PM 29.6200 -95.4447 79° East 287 330 6,000  Level Houston Center
02:32PM 29.6322 -95.3689 79° East 279 321 6,000  Level Houston Center
02:32PM 29.6325 -95.3408 89° East 274 315 6,000  Level Houston Center
02:33PM 29.6308 -95.2847 92° East 237 273 6,000  Level Houston Center
02:33PM 29.6322 -95.2625 86° East 246 283 6,000 -660 Level Houston Center
02:34PM 29.6328 -95.2150 89° East 241 277 5,400 -1,260 Descending Houston Center
02:34PM 29.6361 -95.1853 83° East 238 274 4,700 -1,380 Descending Houston Center
02:35PM 29.6653 -95.1581 39° Northeast 209 241 4,000 -1,200 Descending Houston Center
02:35PM 29.6844 -95.1389 41° Northeast 224 258 3,500 -1,440 Descending Houston Center
02:36PM 29.7122 -95.1428 353° North 180 207 2,400 -1,380 Descending Houston Center
02:36PM 29.7150 -95.1553 284° West 198 228 2,100 -540 Descending Houston Center
02:37PM 29.7064 -95.1939 256° West 169 194 1,900 -540 Descending Houston Center
02:37PM 29.7044 -95.2067 260° West 178 205 1,600 -1,020 Descending Houston Center
02:38PM 29.6869 -95.2347 234° Southwest 130 150 900 -1,020 Descending Houston Center
02:38PM 29.6761 -95.2461 222° Southwest 148 170 600 -720 Descending Houston Center
02:39PM 29.6583 -95.2647 222° Southwest 134 154 200 29,400 Descending Houston Center
02:39PM 29.6461 -95.2769 221° Southwest 139 160 31,000 73,920 Climbing Houston Center